Viking Queen — WDB9919 — position and weather

sailwx.info

Track history (hours):
 
Tides and Currents Weather Stations Pressure Air Temp Water Temp Dewpoint Dewpoint Depression Visibility Wind Speed Wind Dir Waves Ship Positions

Viking Queen

Owner: American River Transportation Company, St Louis, MO. More information available from US FCC via Universal Licensing System and Coast Guard Vessel Documentation Center.

Last reported at 2017-Jun-24 18:17 UTC. Time now 2017-Jun-25 20:51 UTC.
Position N 31°53' W 091°13'.

Length 58 m; draft 3 m.

Type: Towing. MMSI: 366985050.

Date/timePositionNaut miles runAvg speedWind from/ knotsBaromVisibWave heightAir tempDewpointWater temp
2017-Jun-24 18:17N 31°53' W 091°13'5 9.4
2017-Jun-24 17:48N 31°57' W 091°11'4 8.2
2017-Jun-24 17:22N 31°59' W 091°08'3 9.8
2017-Jun-24 17:00N 32°01' W 091°04'4 8.3
2017-Jun-24 16:29N 32°05' W 091°05'3 5.6
2017-Jun-24 16:00N 32°08' W 091°06'4 7.5
2017-Jun-24 15:30N 32°07' W 091°02'4 7.6
2017-Jun-24 15:00N 32°11' W 091°00'8 7.7
2017-Jun-24 14:00N 32°17' W 090°56'3 6.4
2017-Jun-24 13:30N 32°21' W 090°55'5 9.1
2017-Jun-24 13:00N 32°22' W 091°00'4 8.2
2017-Jun-24 12:30N 32°26' W 091°01'5 9.7
2017-Jun-24 12:00N 32°28' W 091°06'5 8.8
2017-Jun-24 11:28N 32°33' W 091°06'6 9.4
2017-Jun-24 10:50N 32°38' W 091°09'3 8.6
2017-Jun-24 10:30N 32°40' W 091°07'  
2017-Jun-20 15:21N 32°47' W 091°09'2 6.3
2017-Jun-20 15:00N 32°45' W 091°09'5 4.4
2017-Jun-20 13:47N 32°41' W 091°04'3 7.1
2017-Jun-20 13:25N 32°40' W 091°07'3 6.2
2017-Jun-20 12:59N 32°38' W 091°09'3 6.0
2017-Jun-20 12:30N 32°35' W 091°08'3 5.9
2017-Jun-20 12:00N 32°33' W 091°06'3 6.6
2017-Jun-20 11:30N 32°30' W 091°07'3 6.3
2017-Jun-20 11:00N 32°27' W 091°05'3 6.5
2017-Jun-20 10:30N 32°26' W 091°02'3 5.7
2017-Jun-20 10:00N 32°24' W 090°59'3 5.3
2017-Jun-20 09:30N 32°21' W 090°59'1 2.9
2017-Jun-20 09:00N 32°21' W 090°58'2 4.7
2017-Jun-20 08:30N 32°21' W 090°55'2 4.1
2017-Jun-20 08:00N 32°19' W 090°55'3 6.6
2017-Jun-20 07:30N 32°16' W 090°57'3 6.7
2017-Jun-20 07:00N 32°13' W 090°59'3 6.7
2017-Jun-20 06:30N 32°10' W 090°60'3 5.9
2017-Jun-20 05:58N 32°07' W 091°02'3 7.0
2017-Jun-20 05:30N 32°08' W 091°06'3 5.8
2017-Jun-20 04:57N 32°05' W 091°05'4 6.4
2017-Jun-20 04:22N 32°01' W 091°04'18 5.2
2017-Jun-20 00:56N 31°50' W 091°21'125 2.7
2017-Jun-18 02:42N 29°56' W 090°22'125 3.7
2017-Jun-16 17:16N 31°53' W 091°13'4 9.1
2017-Jun-16 16:47N 31°57' W 091°11'5 7.9
2017-Jun-16 16:08N 31°59' W 091°06'1 8.7
2017-Jun-16 16:01N 32°00' W 091°05'4 8.1
2017-Jun-16 15:28N 32°04' W 091°04'4 8.2
2017-Jun-16 15:01N 32°08' W 091°06'4 8.3
2017-Jun-16 14:31N 32°07' W 091°02'9 8.7
2017-Jun-16 13:31N 32°16' W 090°58'510.3
2017-Jun-16 13:01N 32°19' W 090°54'4 8.7
2017-Jun-16 12:31N 32°21' W 090°59'4 8.6
2017-Jun-16 12:01N 32°25' W 091°00'511.0
2017-Jun-16 11:30N 32°28' W 091°06'6 9.8
2017-Jun-16 10:56N 32°33' W 091°06'7 9.0
2017-Jun-16 10:12N 32°40' W 091°08'  
Track history (hours):
 
Tides and Currents Weather Stations Pressure Air Temp Water Temp Dewpoint Dewpoint Depression Visibility Wind Speed Wind Dir Waves Ship Positions

Viking Queen

Owner: American River Transportation Company, St Louis, MO. More information available from US FCC via Universal Licensing System and Coast Guard Vessel Documentation Center.

Last reported at 2017-Jun-24 18:17 UTC. Time now 2017-Jun-25 20:51 UTC.
Position N 31°53' W 091°13'.

Length 58 m; draft 3 m.

Type: Towing. MMSI: 366985050.

Date/timePositionNaut miles runAvg speedWind from/ knotsBaromVisibWave heightAir tempDewpointWater temp
2017-Jun-24 18:17N 31°53' W 091°13'5 9.4
2017-Jun-24 17:48N 31°57' W 091°11'4 8.2
2017-Jun-24 17:22N 31°59' W 091°08'3 9.8
2017-Jun-24 17:00N 32°01' W 091°04'4 8.3
2017-Jun-24 16:29N 32°05' W 091°05'3 5.6
2017-Jun-24 16:00N 32°08' W 091°06'4 7.5
2017-Jun-24 15:30N 32°07' W 091°02'4 7.6
2017-Jun-24 15:00N 32°11' W 091°00'8 7.7
2017-Jun-24 14:00N 32°17' W 090°56'3 6.4
2017-Jun-24 13:30N 32°21' W 090°55'5 9.1
2017-Jun-24 13:00N 32°22' W 091°00'4 8.2
2017-Jun-24 12:30N 32°26' W 091°01'5 9.7
2017-Jun-24 12:00N 32°28' W 091°06'5 8.8
2017-Jun-24 11:28N 32°33' W 091°06'6 9.4
2017-Jun-24 10:50N 32°38' W 091°09'3 8.6
2017-Jun-24 10:30N 32°40' W 091°07'  
2017-Jun-20 15:21N 32°47' W 091°09'2 6.3
2017-Jun-20 15:00N 32°45' W 091°09'5 4.4
2017-Jun-20 13:47N 32°41' W 091°04'3 7.1
2017-Jun-20 13:25N 32°40' W 091°07'3 6.2
2017-Jun-20 12:59N 32°38' W 091°09'3 6.0
2017-Jun-20 12:30N 32°35' W 091°08'3 5.9
2017-Jun-20 12:00N 32°33' W 091°06'3 6.6
2017-Jun-20 11:30N 32°30' W 091°07'3 6.3
2017-Jun-20 11:00N 32°27' W 091°05'3 6.5
2017-Jun-20 10:30N 32°26' W 091°02'3 5.7
2017-Jun-20 10:00N 32°24' W 090°59'3 5.3
2017-Jun-20 09:30N 32°21' W 090°59'1 2.9
2017-Jun-20 09:00N 32°21' W 090°58'2 4.7
2017-Jun-20 08:30N 32°21' W 090°55'2 4.1
2017-Jun-20 08:00N 32°19' W 090°55'3 6.6
2017-Jun-20 07:30N 32°16' W 090°57'3 6.7
2017-Jun-20 07:00N 32°13' W 090°59'3 6.7
2017-Jun-20 06:30N 32°10' W 090°60'3 5.9
2017-Jun-20 05:58N 32°07' W 091°02'3 7.0
2017-Jun-20 05:30N 32°08' W 091°06'3 5.8
2017-Jun-20 04:57N 32°05' W 091°05'4 6.4
2017-Jun-20 04:22N 32°01' W 091°04'18 5.2
2017-Jun-20 00:56N 31°50' W 091°21'125 2.7
2017-Jun-18 02:42N 29°56' W 090°22'125 3.7
2017-Jun-16 17:16N 31°53' W 091°13'4 9.1
2017-Jun-16 16:47N 31°57' W 091°11'5 7.9
2017-Jun-16 16:08N 31°59' W 091°06'1 8.7
2017-Jun-16 16:01N 32°00' W 091°05'4 8.1
2017-Jun-16 15:28N 32°04' W 091°04'4 8.2
2017-Jun-16 15:01N 32°08' W 091°06'4 8.3
2017-Jun-16 14:31N 32°07' W 091°02'9 8.7
2017-Jun-16 13:31N 32°16' W 090°58'510.3
2017-Jun-16 13:01N 32°19' W 090°54'4 8.7
2017-Jun-16 12:31N 32°21' W 090°59'4 8.6
2017-Jun-16 12:01N 32°25' W 091°00'511.0
2017-Jun-16 11:30N 32°28' W 091°06'6 9.8
2017-Jun-16 10:56N 32°33' W 091°06'7 9.0
2017-Jun-16 10:12N 32°40' W 091°08'  

Dump ship's entire track history